KRBG 251020Z 2510/2606 00000KT 5SM BR OVC003
FM251600 VRB03KT 2SM BR OVC006
FM252000 00000KT P6SM OVC008
From batch tds/tafs/production/2023/1/25/h10_m29_tafs.cache.xml
Issued (10 days ago)
Forecasts
2510/2516 VRB00KT 5.0SM OVC300

---
wx_string: BR
fcst_time_to: '2023-01-25T16:00:00Z'
sky_condition:
- sky_cover: OVC
  cloud_base_ft_agl: '300'
wind_speed_kt: '0'
fcst_time_from: '2023-01-25T10:00:00Z'
wind_dir_degrees: '0'
visibility_statute_mi: '5.0'

FM251600 VRB03KT 2.0SM OVC600

---
wx_string: BR
fcst_time_to: '2023-01-25T20:00:00Z'
sky_condition:
- sky_cover: OVC
  cloud_base_ft_agl: '600'
wind_speed_kt: '3'
fcst_time_from: '2023-01-25T16:00:00Z'
change_indicator: FM
wind_dir_degrees: '0'
visibility_statute_mi: '2.0'

FM252000 VRB00KT P6SM OVC800

---
fcst_time_to: '2023-01-26T06:00:00Z'
sky_condition:
- sky_cover: OVC
  cloud_base_ft_agl: '800'
wind_speed_kt: '0'
fcst_time_from: '2023-01-25T20:00:00Z'
change_indicator: FM
wind_dir_degrees: '0'
visibility_statute_mi: '6.21'

talk